createdAt,value
2024-05-09T00:02:16.172Z,47.75
2024-05-09T00:05:24.698Z,48.03
2024-05-09T00:08:30.109Z,47.46
2024-05-09T00:11:35.623Z,47.96
2024-05-09T00:14:40.891Z,48.26
2024-05-09T00:17:46.684Z,48.20
2024-05-09T00:20:54.901Z,48.45
2024-05-09T00:24:00.396Z,48.59
2024-05-09T00:27:05.970Z,48.68
2024-05-09T00:30:17.802Z,48.86
2024-05-09T00:33:29.738Z,49.20
2024-05-09T00:36:37.988Z,49.73
2024-05-09T00:39:43.119Z,49.88
2024-05-09T00:42:50.319Z,50.22
2024-05-09T00:45:57.417Z,50.03
2024-05-09T00:49:05.317Z,50.31
2024-05-09T00:52:13.716Z,50.26
2024-05-09T00:55:20.149Z,50.32
2024-05-09T00:58:27.248Z,50.24
2024-05-09T01:01:33.026Z,51.07
2024-05-09T01:04:38.739Z,50.94
2024-05-09T01:07:47.175Z,51.52
2024-05-09T01:10:52.508Z,51.23
2024-05-09T01:13:59.250Z,51.53
2024-05-09T01:17:04.659Z,51.34
2024-05-09T01:20:19.705Z,51.63
2024-05-09T01:23:31.031Z,52.09
2024-05-09T01:26:36.758Z,51.92
2024-05-09T01:29:41.958Z,52.05
2024-05-09T01:32:47.656Z,52.07
2024-05-09T01:35:53.112Z,52.24
2024-05-09T01:39:01.770Z,52.33
2024-05-09T01:42:07.903Z,52.65
2024-05-09T01:45:13.957Z,52.67
2024-05-09T01:48:19.278Z,52.90
2024-05-09T01:51:25.573Z,53.15
2024-05-09T01:54:33.442Z,52.96
2024-05-09T01:57:38.900Z,52.93
2024-05-09T02:00:45.251Z,53.14
2024-05-09T02:03:50.937Z,53.23
2024-05-09T02:06:56.576Z,53.34
2024-05-09T02:10:10.961Z,53.67
2024-05-09T02:13:21.733Z,53.50
2024-05-09T02:16:27.272Z,53.70
2024-05-09T02:19:33.070Z,53.49
2024-05-09T02:22:38.695Z,53.70
2024-05-09T02:25:46.770Z,54.40
2024-05-09T02:28:52.346Z,54.34
2024-05-09T02:31:57.802Z,54.38
2024-05-09T02:35:03.477Z,54.62
2024-05-09T02:38:08.840Z,54.37
2024-05-09T02:41:14.329Z,54.72
2024-05-09T02:44:19.953Z,54.69
2024-05-09T02:47:23.074Z,54.97
2024-05-09T02:50:34.648Z,54.74
2024-05-09T02:53:44.685Z,55.14
2024-05-09T02:56:49.977Z,55.27
2024-05-09T02:59:55.473Z,55.29
2024-05-09T03:02:58.205Z,55.47
2024-05-09T03:06:05.158Z,55.55
2024-05-09T03:09:09.705Z,55.59
2024-05-09T03:12:18.034Z,55.53
2024-05-09T03:15:22.499Z,55.37
2024-05-09T03:18:28.266Z,55.33
2024-05-09T03:21:30.994Z,55.53
2024-05-09T03:24:36.478Z,55.67
2024-05-09T03:27:44.441Z,55.46
2024-05-09T03:30:47.569Z,55.87
2024-05-09T03:33:53.051Z,55.73
2024-05-09T03:36:59.818Z,56.26
2024-05-09T03:40:09.272Z,55.76
2024-05-09T03:43:20.439Z,56.60
2024-05-09T03:46:26.366Z,55.86
2024-05-09T03:49:29.222Z,56.21
2024-05-09T03:52:34.458Z,55.91
2024-05-09T03:55:37.572Z,56.13
2024-05-09T03:58:45.824Z,56.00
2024-05-09T04:01:49.272Z,56.17
2024-05-09T04:04:54.697Z,56.12
2024-05-09T04:08:00.893Z,56.08
2024-05-09T04:11:03.891Z,55.91
2024-05-09T04:14:12.514Z,56.07
2024-05-09T04:17:15.420Z,56.14
2024-05-09T04:20:32.550Z,56.03
2024-05-09T04:23:43.459Z,55.73
2024-05-09T04:26:46.296Z,55.81
2024-05-09T04:29:54.120Z,55.74
2024-05-09T04:32:57.242Z,55.54
2024-05-09T04:36:02.546Z,55.31
2024-05-09T04:39:05.383Z,55.31
2024-05-09T04:42:10.557Z,55.17
2024-05-09T04:45:17.198Z,55.32
2024-05-09T04:48:22.827Z,54.75
2024-05-09T04:51:25.732Z,54.75
2024-05-09T04:54:36.209Z,54.54
2024-05-09T04:57:40.209Z,54.38
2024-05-09T05:00:48.220Z,54.33
2024-05-09T05:03:51.347Z,54.22
2024-05-09T05:06:59.660Z,53.87
2024-05-09T05:10:05.832Z,54.09
2024-05-09T05:13:23.825Z,54.05
2024-05-09T05:16:32.829Z,53.94
2024-05-09T05:19:38.261Z,53.61
2024-05-09T05:22:43.179Z,53.75
2024-05-09T05:25:51.117Z,53.54
2024-05-09T05:28:54.162Z,53.36
2024-05-09T05:32:02.515Z,53.40
2024-05-09T05:35:05.962Z,53.19
2024-05-09T05:38:12.835Z,53.31
2024-05-09T05:41:18.370Z,53.16
2024-05-09T05:44:21.209Z,53.01
2024-05-09T05:50:37.712Z,52.94
2024-05-09T05:53:41.598Z,52.84
2024-05-09T05:56:46.965Z,52.67
2024-05-09T05:59:50.054Z,52.34
2024-05-09T06:02:58.077Z,52.22
2024-05-09T06:06:06.196Z,51.91
2024-05-09T06:09:08.893Z,51.81
2024-05-09T06:12:14.690Z,51.85
2024-05-09T06:15:17.400Z,51.54
2024-05-09T06:18:25.945Z,51.46
2024-05-09T06:21:28.910Z,51.42
2024-05-09T06:24:34.523Z,51.02
2024-05-09T06:27:39.790Z,50.79
2024-05-09T06:30:43.396Z,50.75
2024-05-09T06:33:51.743Z,50.61
2024-05-09T06:36:54.790Z,50.28
2024-05-09T06:40:00.343Z,50.19
2024-05-09T06:43:03.453Z,49.80
2024-05-09T06:46:08.711Z,49.60
2024-05-09T06:49:14.711Z,49.30
2024-05-09T06:52:20.473Z,48.96
2024-05-09T06:55:23.292Z,48.79
2024-05-09T06:58:28.823Z,48.54
2024-05-09T07:01:34.649Z,48.39
2024-05-09T07:04:42.602Z,48.27
2024-05-09T07:07:45.567Z,48.19
2024-05-09T07:10:51.089Z,47.78
2024-05-09T07:13:54.243Z,47.45
2024-05-09T07:17:00.023Z,47.47
2024-05-09T07:20:16.210Z,47.30
2024-05-09T07:23:25.503Z,47.29
2024-05-09T07:26:28.588Z,46.98
2024-05-09T07:29:37.866Z,46.22
2024-05-09T07:32:41.516Z,46.18
2024-05-09T07:35:49.620Z,45.97
2024-05-09T07:38:52.527Z,46.29
2024-05-09T07:41:58.729Z,46.00
2024-05-09T07:45:21.028Z,45.68
2024-05-09T07:50:00.397Z,45.57
2024-05-09T07:53:21.838Z,45.31
2024-05-09T07:55:19.423Z,45.35
2024-05-09T07:58:27.782Z,44.92
2024-05-09T08:01:33.465Z,44.99
2024-05-09T08:04:36.605Z,45.02
2024-05-09T08:07:45.453Z,44.58
2024-05-09T08:10:48.347Z,44.58
2024-05-09T08:13:53.647Z,44.10
2024-05-09T08:16:57.398Z,43.81
2024-05-09T08:20:05.500Z,43.49
2024-05-09T08:23:11.543Z,44.08
2024-05-09T08:26:16.784Z,43.14
2024-05-09T08:29:22.306Z,43.04
2024-05-09T08:32:27.318Z,43.12
2024-05-09T08:35:35.111Z,43.44
2024-05-09T08:38:40.626Z,42.83
2024-05-09T08:41:46.171Z,42.70
2024-05-09T08:44:52.235Z,42.34
2024-05-09T08:47:57.006Z,42.06
2024-05-09T08:51:02.313Z,42.00
2024-05-09T08:54:10.468Z,42.03
2024-05-09T08:57:17.634Z,41.28
2024-05-09T09:00:29.207Z,40.92
2024-05-09T09:03:40.394Z,40.68
2024-05-09T09:06:44.912Z,40.83
2024-05-09T09:09:53.555Z,40.26
2024-05-09T09:12:58.113Z,40.13
2024-05-09T09:16:03.921Z,40.16
2024-05-09T09:19:07.081Z,40.11
2024-05-09T09:22:14.138Z,40.11
2024-05-09T09:25:21.160Z,40.04
2024-05-09T09:28:26.398Z,39.67
2024-05-09T09:31:30.501Z,39.39
2024-05-09T09:34:36.692Z,38.85
2024-05-09T09:37:39.503Z,38.93
2024-05-09T09:40:50.497Z,39.16
2024-05-09T09:43:55.184Z,39.00
2024-05-09T09:47:02.109Z,38.41
2024-05-09T09:50:11.813Z,38.30
2024-05-09T09:53:20.100Z,38.48
2024-05-09T09:56:30.281Z,38.05
2024-05-09T09:59:38.455Z,38.25
2024-05-09T10:02:41.388Z,37.21
2024-05-09T10:05:47.530Z,37.51
2024-05-09T10:08:53.988Z,37.19
2024-05-09T10:12:12.405Z,36.80
2024-05-09T10:15:20.094Z,36.45
2024-05-09T10:18:30.180Z,36.74
2024-05-09T10:21:34.244Z,37.00
2024-05-09T10:24:50.979Z,36.76
2024-05-09T10:27:57.923Z,36.61
2024-05-09T10:31:10.297Z,36.32
2024-05-09T10:34:23.125Z,35.83
2024-05-09T10:37:27.898Z,35.99
2024-05-09T10:40:34.658Z,36.10
2024-05-09T10:43:44.283Z,36.09
2024-05-09T10:46:50.423Z,35.49
2024-05-09T10:49:54.557Z,35.28
2024-05-09T10:53:00.138Z,34.83
2024-05-09T10:56:03.025Z,34.93
2024-05-09T10:59:11.184Z,34.98
2024-05-09T11:02:15.202Z,34.60
2024-05-09T11:05:21.278Z,35.08
2024-05-09T11:08:27.226Z,34.10
2024-05-09T11:11:35.452Z,34.11
2024-05-09T11:14:40.852Z,33.68
2024-05-09T11:17:46.509Z,33.84
2024-05-09T11:20:51.943Z,33.65
2024-05-09T11:23:58.710Z,33.04
2024-05-09T11:27:06.887Z,32.52
2024-05-09T11:30:27.036Z,31.29
2024-05-09T11:33:39.911Z,32.53
2024-05-09T11:36:45.824Z,31.97
2024-05-09T11:39:51.206Z,32.07
2024-05-09T11:42:54.264Z,31.76
2024-05-09T11:46:03.601Z,31.17
2024-05-09T11:49:10.064Z,30.87
2024-05-09T11:52:15.651Z,31.59
2024-05-09T11:55:19.000Z,31.00
2024-05-09T11:58:25.192Z,30.81
2024-05-09T12:01:33.629Z,30.98
2024-05-09T12:04:36.776Z,30.26
2024-05-09T12:07:43.471Z,30.18
2024-05-09T12:10:49.197Z,29.72
2024-05-09T12:13:52.535Z,29.23
2024-05-09T12:17:01.991Z,28.85
2024-05-09T12:20:14.292Z,28.49
2024-05-09T12:23:23.951Z,28.07
2024-05-09T12:26:29.969Z,28.09
2024-05-09T12:29:34.414Z,27.53
2024-05-09T12:32:46.183Z,27.09
2024-05-09T12:35:50.887Z,26.77
2024-05-09T12:38:56.850Z,26.50
2024-05-09T12:41:59.556Z,26.28
2024-05-09T12:45:05.136Z,26.32
2024-05-09T12:48:12.375Z,26.63
2024-05-09T12:51:18.680Z,26.80
2024-05-09T12:54:21.230Z,27.02
2024-05-09T12:57:27.060Z,26.89
2024-05-09T13:00:33.735Z,27.25
2024-05-09T13:03:42.922Z,27.42
2024-05-09T13:06:45.998Z,27.63
2024-05-09T13:09:51.631Z,27.87
2024-05-09T13:12:56.901Z,28.16
2024-05-09T13:16:00.197Z,27.88
2024-05-09T13:19:08.333Z,27.75
2024-05-09T13:22:13.961Z,28.18
2024-05-09T13:25:16.962Z,28.37
2024-05-09T13:28:22.900Z,28.57
2024-05-09T13:31:25.796Z,28.04
2024-05-09T13:34:34.216Z,26.24
2024-05-09T13:37:39.729Z,24.07
2024-05-09T13:40:45.585Z,22.40
2024-05-09T13:43:48.513Z,21.19
2024-05-09T13:46:54.255Z,21.22
2024-05-09T13:49:59.688Z,21.92
2024-05-09T13:53:07.015Z,20.14
2024-05-09T13:56:13.443Z,19.02
2024-05-09T13:59:16.313Z,19.50
2024-05-09T14:02:21.782Z,19.39
2024-05-09T14:05:27.521Z,19.83
2024-05-09T14:08:33.029Z,20.51
2024-05-09T14:11:38.840Z,21.41
2024-05-09T14:14:41.699Z,20.19
2024-05-09T14:17:47.502Z,19.72
2024-05-09T14:20:55.399Z,19.92
2024-05-09T14:23:58.359Z,18.88
2024-05-09T14:27:04.565Z,16.92
2024-05-09T14:30:18.374Z,17.47
2024-05-09T14:33:31.481Z,15.92
2024-05-09T14:36:37.568Z,15.21
2024-05-09T14:39:42.843Z,14.86
2024-05-09T14:42:48.511Z,14.25
2024-05-09T14:45:51.297Z,13.29
2024-05-09T14:48:58.407Z,13.77
2024-05-09T14:52:07.120Z,13.47
2024-05-09T14:55:12.252Z,13.34
2024-05-09T14:58:18.193Z,14.30
2024-05-09T15:01:23.994Z,13.55
2024-05-09T15:04:29.976Z,13.50
2024-05-09T15:07:35.672Z,13.54
2024-05-09T15:10:41.451Z,13.80
2024-05-09T15:13:44.397Z,12.77
2024-05-09T15:16:50.681Z,13.58
2024-05-09T15:19:53.936Z,13.18
2024-05-09T15:23:01.937Z,13.39
2024-05-09T15:26:05.400Z,13.54
2024-05-09T15:29:10.756Z,13.45
2024-05-09T15:32:14.716Z,13.23
2024-05-09T15:35:20.117Z,13.34
2024-05-09T15:38:27.591Z,13.59
2024-05-09T15:41:33.026Z,12.75
2024-05-09T15:44:36.006Z,13.27
2024-05-09T15:47:41.304Z,13.05
2024-05-09T15:50:44.715Z,14.09
2024-05-09T15:53:52.828Z,13.50
2024-05-09T15:56:55.834Z,14.84
2024-05-09T16:00:01.291Z,15.33
2024-05-09T16:03:07.785Z,15.28
2024-05-09T16:06:13.758Z,15.00
2024-05-09T16:09:21.216Z,14.49
2024-05-09T16:12:26.563Z,15.09
2024-05-09T16:15:29.569Z,14.73
2024-05-09T16:18:35.249Z,14.87
2024-05-09T16:21:38.466Z,14.60
2024-05-09T16:24:46.620Z,14.71
2024-05-09T16:27:51.206Z,15.18
2024-05-09T16:30:56.712Z,15.13
2024-05-09T16:33:59.809Z,15.04
2024-05-09T16:37:06.630Z,15.44
2024-05-09T16:40:21.443Z,15.62
2024-05-09T16:43:31.188Z,15.98
2024-05-09T16:46:34.401Z,16.29
2024-05-09T16:49:40.071Z,16.77
2024-05-09T16:52:43.241Z,16.16
2024-05-09T16:55:51.205Z,17.06
2024-05-09T16:58:54.042Z,16.48
2024-05-09T17:02:00.161Z,17.59
2024-05-09T17:05:03.712Z,17.96
2024-05-09T17:08:10.439Z,17.88
2024-05-09T17:11:18.685Z,18.24
2024-05-09T17:14:24.262Z,18.45
2024-05-09T17:17:30.151Z,18.55
2024-05-09T17:20:37.255Z,19.08
2024-05-09T17:23:40.948Z,19.71
2024-05-09T17:26:49.656Z,20.22
2024-05-09T17:29:52.683Z,20.79
2024-05-09T17:32:58.185Z,21.61
2024-05-09T17:36:03.877Z,22.32
2024-05-09T17:39:06.612Z,22.99
2024-05-09T17:42:15.097Z,24.00
2024-05-09T17:45:17.949Z,24.98
2024-05-09T17:48:23.704Z,25.14
2024-05-09T17:51:29.145Z,26.18
2024-05-09T17:54:32.074Z,26.47
2024-05-09T17:57:40.055Z,27.04
2024-05-09T18:00:43.088Z,27.27
2024-05-09T18:03:49.959Z,27.92
2024-05-09T18:06:53.143Z,27.77
2024-05-09T18:09:58.655Z,28.56
2024-05-09T18:13:07.559Z,29.35
2024-05-09T18:16:13.292Z,29.92
2024-05-09T18:19:16.699Z,30.65
2024-05-09T18:22:23.610Z,31.02
2024-05-09T18:25:27.380Z,31.14
2024-05-09T18:28:35.556Z,31.66
2024-05-09T18:31:39.190Z,31.95
2024-05-09T18:34:44.705Z,32.56
2024-05-09T18:37:47.795Z,32.66
2024-05-09T18:40:53.047Z,33.12
2024-05-09T18:43:59.557Z,34.20
2024-05-09T18:47:05.234Z,33.80
2024-05-09T18:50:14.654Z,34.48
2024-05-09T18:53:26.169Z,34.90
2024-05-09T18:56:31.759Z,35.06
2024-05-09T18:59:37.090Z,35.49
2024-05-09T19:02:42.812Z,35.31
2024-05-09T19:05:46.442Z,36.02
2024-05-09T19:08:52.523Z,36.18
2024-05-09T19:12:00.580Z,36.46
2024-05-09T19:15:07.197Z,36.77
2024-05-09T19:18:13.892Z,36.64
2024-05-09T19:21:17.445Z,36.69
2024-05-09T19:24:22.850Z,36.69
2024-05-09T19:27:25.952Z,37.30
2024-05-09T19:30:39.667Z,37.41
2024-05-09T19:33:47.876Z,37.67
2024-05-09T19:36:51.387Z,37.54
2024-05-09T19:39:57.136Z,37.87
2024-05-09T19:42:59.938Z,37.90
2024-05-09T19:46:09.018Z,38.41
2024-05-09T19:49:11.921Z,38.68
2024-05-09T19:52:18.421Z,38.79
2024-05-09T19:55:24.188Z,39.25
2024-05-09T19:58:29.918Z,39.03
2024-05-09T20:01:35.592Z,39.88
2024-05-09T20:04:45.046Z,39.64
2024-05-09T20:07:47.832Z,39.93
2024-05-09T20:10:54.049Z,39.92
2024-05-09T20:13:58.552Z,39.92
2024-05-09T20:17:07.639Z,40.24
2024-05-09T20:20:20.766Z,40.69
2024-05-09T20:23:34.151Z,40.64
2024-05-09T20:26:37.243Z,40.79
2024-05-09T20:29:43.254Z,41.07
2024-05-09T20:32:48.815Z,41.35
2024-05-09T20:35:55.529Z,41.61
2024-05-09T20:38:58.274Z,41.49
2024-05-09T20:42:05.204Z,41.90
2024-05-09T20:45:11.831Z,42.17
2024-05-09T20:48:17.750Z,42.43
2024-05-09T20:51:23.241Z,42.29
2024-05-09T20:54:26.252Z,42.61
2024-05-09T20:57:32.104Z,43.03
2024-05-09T21:00:40.109Z,42.84
2024-05-09T21:03:51.422Z,43.22
2024-05-09T21:06:54.503Z,43.13
2024-05-09T21:10:00.011Z,43.45
2024-05-09T21:13:03.763Z,43.46
2024-05-09T21:16:10.796Z,43.59
2024-05-09T21:19:16.380Z,43.42
2024-05-09T21:22:21.857Z,43.42
2024-05-09T21:25:27.713Z,43.47
2024-05-09T21:28:30.583Z,43.54
2024-05-09T21:31:36.253Z,43.61
2024-05-09T21:34:41.566Z,43.64
2024-05-09T21:37:47.212Z,43.38
2024-05-09T21:40:52.723Z,43.74
2024-05-09T21:43:59.490Z,43.93
2024-05-09T21:47:05.198Z,44.12
2024-05-09T21:50:22.189Z,44.82
2024-05-09T21:53:28.904Z,44.52
2024-05-09T21:56:31.783Z,44.52
2024-05-09T21:59:37.006Z,44.73
2024-05-09T22:02:40.507Z,45.18
2024-05-09T22:05:48.673Z,45.83
2024-05-09T22:08:51.507Z,45.82
2024-05-09T22:15:00.140Z,46.42
2024-05-09T22:18:05.635Z,46.57
2024-05-09T22:21:14.056Z,46.82
2024-05-09T22:24:19.426Z,47.12
2024-05-09T22:27:22.361Z,47.19
2024-05-09T22:30:34.797Z,47.15
2024-05-09T22:33:47.152Z,47.42
2024-05-09T22:36:53.196Z,47.52
2024-05-09T22:39:58.928Z,47.68
2024-05-09T22:43:01.519Z,47.90
2024-05-09T22:46:07.562Z,47.84
2024-05-09T22:49:10.284Z,48.13
2024-05-09T22:52:18.611Z,48.41
2024-05-09T22:55:21.291Z,48.30
2024-05-09T22:58:26.844Z,48.56
2024-05-09T23:01:32.209Z,48.90
2024-05-09T23:04:35.538Z,49.29
2024-05-09T23:07:43.404Z,49.21
2024-05-09T23:10:46.411Z,49.57
2024-05-09T23:13:51.815Z,49.99
2024-05-09T23:16:57.431Z,50.10
2024-05-09T23:20:00.330Z,50.18
2024-05-09T23:23:09.760Z,50.68
2024-05-09T23:26:16.101Z,50.68
2024-05-09T23:29:21.628Z,50.71
2024-05-09T23:32:27.184Z,50.87
2024-05-09T23:35:30.075Z,51.37
2024-05-09T23:38:38.138Z,51.46
2024-05-09T23:41:43.952Z,51.40
2024-05-09T23:44:46.565Z,51.75
2024-05-09T23:47:52.258Z,51.64
2024-05-09T23:50:55.348Z,51.57
2024-05-09T23:54:03.466Z,51.93
2024-05-09T23:57:06.110Z,51.92
